Time;durP1;ratioP1;P1;durP2;ratioP2;P2;SDS_P1;SDS_P2;PMS_P1;PMS_P2;Temp;Humidity;BMP_temperature;BMP_pressure;BME280_temperature;BME280_humidity;BME280_pressure;Samples;Min_cycle;Max_cycle;Signal;HPM_P1;HPM_P2
2023/06/26 00:01:31;;;;;;;;;9.00;7.00;;;;;18.56;100.00;99503.97;6284383;20;2758621;-50
2023/06/26 00:04:01;;;;;;;;;11.20;8.60;;;;;18.42;100.00;99498.03;6341226;20;2765928;-51
2023/06/26 00:06:30;;;;;;;;;6.40;6.40;;;;;18.46;100.00;99501.31;6312990;20;2740982;-54
2023/06/26 00:08:58;;;;;;;;;7.33;7.33;;;;;18.38;100.00;99498.50;6312960;20;2734742;-49
2023/06/26 00:11:30;;;;;;;;;8.20;8.00;;;;;18.39;100.00;99492.91;6342159;20;2750270;-50
2023/06/26 00:14:00;;;;;;;;;9.00;9.00;;;;;18.42;100.00;99499.91;6280582;20;2761744;-48
2023/06/26 00:16:28;;;;;;;;;8.00;8.00;;;;;18.35;100.00;99496.06;6317555;20;2733662;-52
2023/06/26 00:18:58;;;;;;;;;6.80;6.80;;;;;18.61;100.00;99497.06;6340165;20;2736704;-50
2023/06/26 00:21:27;;;;;;;;;7.33;7.33;;;;;18.69;100.00;99503.63;6315355;20;2735677;-50
2023/06/26 00:23:55;;;;;;;;;7.00;7.00;;;;;18.86;100.00;99505.59;6315729;20;2741996;-53
2023/06/26 00:26:24;;;;;;;;;10.00;7.60;;;;;18.91;100.00;99507.88;6339513;20;2751336;-51
2023/06/26 00:28:52;;;;;;;;;8.33;7.67;;;;;18.82;100.00;99510.47;6283107;20;2737079;-50
2023/06/26 00:31:21;;;;;;;;;7.00;7.00;;;;;18.71;100.00;99504.34;6339812;20;2739581;-53
2023/06/26 00:33:51;;;;;;;;;9.40;8.20;;;;;18.78;100.00;99503.63;6338626;20;2746205;-50
2023/06/26 00:36:22;;;;;;;;;9.80;9.80;;;;;18.80;100.00;99500.75;6305938;20;2778418;-53
2023/06/26 00:38:51;;;;;;;;;6.80;6.80;;;;;18.82;100.00;99501.44;6309985;20;2730515;-49
2023/06/26 00:41:19;;;;;;;;;8.00;8.00;;;;;18.70;100.00;99502.66;6319244;20;2748319;-52
2023/06/26 00:43:49;;;;;;;;;5.00;5.00;;;;;18.84;100.00;99491.28;6340618;20;2752471;-49
2023/06/26 00:46:17;;;;;;;;;7.00;6.67;;;;;18.60;100.00;99489.94;6283008;20;2734641;-52
2023/06/26 00:48:49;;;;;;;;;7.80;7.80;;;;;18.88;100.00;99492.69;6339152;20;2740885;-52
2023/06/26 00:51:18;;;;;;;;;7.80;7.80;;;;;18.84;100.00;99491.28;6305961;20;2748202;-52
2023/06/26 00:53:48;;;;;;;;;6.60;6.20;;;;;18.93;100.00;99489.50;6341698;20;2735690;-52
2023/06/26 00:56:19;;;;;;;;;9.33;8.00;;;;;18.95;100.00;99490.22;6318999;20;2746185;-53
2023/06/26 00:58:48;;;;;;;;;9.67;7.00;;;;;18.92;100.00;99494.09;6313989;20;2752320;-55
2023/06/26 01:01:17;;;;;;;;;11.40;9.00;;;;;18.98;100.00;99493.47;6336426;20;2775214;-52
2023/06/26 01:03:53;;;;;;;;;7.80;7.80;;;;;18.80;100.00;99487.13;6309219;20;2734659;-48
2023/06/26 01:06:23;;;;;;;;;6.00;6.00;;;;;18.81;100.00;99480.72;6316352;20;2734706;-52
2023/06/26 01:08:52;;;;;;;;;3.33;3.33;;;;;18.74;100.00;99485.00;6316034;20;2732629;-50
2023/06/26 01:11:20;;;;;;;;;10.00;9.67;;;;;18.55;100.00;99480.53;6320808;20;2765425;-55
2023/06/26 01:13:52;;;;;;;;;11.80;8.00;;;;;18.58;100.00;99482.94;6339303;20;2761813;-54
2023/06/26 01:16:23;;;;;;;;;8.40;8.40;;;;;18.43;100.00;99488.88;6307406;20;2741907;-54
2023/06/26 01:18:53;;;;;;;;;7.40;7.40;;;;;18.48;100.00;99480.25;6302348;20;2739976;-53
2023/06/26 01:21:21;;;;;;;;;7.33;7.33;;;;;18.63;100.00;99478.75;6312042;20;2740914;-53
2023/06/26 01:24:20;;;;;;;;;8.67;8.67;;;;;18.39;100.00;99471.16;6323180;20;2751344;-54
2023/06/26 01:26:51;;;;;;;;;8.20;7.00;;;;;18.59;100.00;99481.94;6345803;20;2744050;-50
2023/06/26 01:29:23;;;;;;;;;6.40;6.40;;;;;18.50;100.00;99483.69;6343980;20;2746131;-54
2023/06/26 01:31:52;;;;;;;;;8.00;8.00;;;;;18.62;100.00;99481.66;6342400;20;2750269;-52
2023/06/26 01:34:21;;;;;;;;;7.60;6.80;;;;;18.33;100.00;99488.06;6311936;20;2741999;-54
2023/06/26 01:36:50;;;;;;;;;7.00;6.20;;;;;18.38;100.00;99484.91;6337061;20;2754468;-54
2023/06/26 01:39:20;;;;;;;;;7.60;6.60;;;;;18.43;100.00;99477.13;6311333;20;2737874;-52
2023/06/26 01:41:48;;;;;;;;;8.67;7.33;;;;;18.39;100.00;99475.72;6324412;20;2759656;-55
2023/06/26 01:44:29;;;;;;;;;12.67;8.67;;;;;18.32;100.00;99471.91;6324727;20;2771126;-53
2023/06/26 01:47:04;;;;;;;;;7.67;6.67;;;;;18.27;100.00;99471.47;6313504;20;2735700;-54
2023/06/26 01:50:09;;;;;;;;;10.60;7.60;;;;;18.45;100.00;99463.41;6335799;20;2773361;-51
2023/06/26 01:52:46;;;;;;;;;9.20;7.80;;;;;18.30;100.00;99466.63;6308750;20;2749257;-54
2023/06/26 01:55:41;;;;;;;;;8.00;8.00;;;;;18.23;100.00;99470.94;6288596;20;2744154;-54
2023/06/26 01:58:10;;;;;;;;;8.00;8.00;;;;;18.33;100.00;99460.03;6311577;20;2736884;-52
2023/06/26 02:00:38;;;;;;;;;12.00;11.00;;;;;18.28;100.00;99462.34;6313541;20;2791983;-53
2023/06/26 02:03:07;;;;;;;;;9.67;9.00;;;;;18.31;100.00;99460.16;6316289;20;2763944;-49
2023/06/26 02:05:34;;;;;;;;;8.50;8.50;;;;;18.13;100.00;99451.09;6327336;20;2737854;-52
2023/06/26 02:08:04;;;;;;;;;9.80;9.80;;;;;18.10;100.00;99459.53;6319006;20;2779502;-55
2023/06/26 02:10:32;;;;;;;;;10.33;9.67;;;;;18.18;100.00;99457.78;6283312;20;3497138;-51
2023/06/26 02:13:01;;;;;;;;;10.00;10.00;;;;;17.99;100.00;99461.44;6318310;20;2790970;-54
2023/06/26 02:15:29;;;;;;;;;11.00;9.00;;;;;17.88;100.00;99449.91;6342335;20;1862926;-53
2023/06/26 02:17:57;;;;;;;;;9.67;9.33;;;;;18.09;100.00;99455.97;6286820;20;2784014;-51
2023/06/26 02:20:26;;;;;;;;;8.00;8.00;;;;;17.93;100.00;99453.00;6342216;20;2752352;-51
2023/06/26 02:22:53;;;;;;;;;9.00;7.00;;;;;17.83;100.00;99457.63;6293132;20;2742010;-51
2023/06/26 02:25:21;;;;;;;;;8.50;8.50;;;;;17.63;100.00;99462.19;6291927;20;2744029;-48
2023/06/26 02:27:49;;;;;;;;;13.00;10.00;;;;;17.88;100.00;99456.19;6292653;20;2786748;-49
2023/06/26 02:30:17;;;;;;;;;9.33;9.33;;;;;18.01;100.00;99460.41;6287646;20;2766958;-55
2023/06/26 02:32:45;;;;;;;;;9.33;7.67;;;;;18.20;100.00;99466.66;6317812;20;2752428;-50
2023/06/26 02:35:13;;;;;;;;;10.67;7.67;;;;;18.12;100.00;99466.53;6315690;20;2761856;-55
2023/06/26 02:37:41;;;;;;;;;7.33;7.33;;;;;18.29;100.00;99458.59;6317203;20;2736807;-51
2023/06/26 02:40:10;;;;;;;;;9.67;9.67;;;;;18.38;100.00;99468.59;6319000;20;2774290;-51
2023/06/26 02:42:39;;;;;;;;;11.40;10.00;;;;;18.20;100.00;99474.81;6342650;20;2775279;-54
2023/06/26 02:45:08;;;;;;;;;8.00;8.00;;;;;18.25;100.00;99473.53;6297371;20;2731732;-50
2023/06/26 02:47:39;;;;;;;;;11.67;8.67;;;;;18.24;100.00;99477.22;6321143;20;2766320;-51
2023/06/26 02:50:08;;;;;;;;;11.33;9.00;;;;;17.94;100.00;99469.16;6318764;20;2765982;-54
2023/06/26 02:52:36;;;;;;;;;10.00;9.00;;;;;18.21;100.00;99473.78;6319472;20;2711775;-49
2023/06/26 02:55:05;;;;;;;;;10.00;8.67;;;;;17.96;100.00;99471.75;6316473;20;2769079;-52
2023/06/26 02:57:33;;;;;;;;;12.33;9.33;;;;;18.10;100.00;99473.97;6316840;20;2776325;-50
2023/06/26 03:00:00;;;;;;;;;9.50;9.50;;;;;18.08;100.00;99480.56;6322132;20;2759660;-52
2023/06/26 03:02:29;;;;;;;;;10.80;10.80;;;;;17.94;100.00;99476.47;6312492;20;2771210;-50
2023/06/26 03:05:01;;;;;;;;;9.67;8.67;;;;;17.77;100.00;99481.63;6331484;20;3373170;-55
2023/06/26 03:07:28;;;;;;;;;10.00;8.00;;;;;17.62;100.00;99477.63;6324121;20;2753411;-55
2023/06/26 03:09:55;;;;;;;;;8.00;8.00;;;;;17.62;100.00;99477.63;6288726;20;2739909;-53
2023/06/26 03:12:25;;;;;;;;;9.80;9.80;;;;;17.64;100.00;99470.22;6312495;20;2776365;-52
2023/06/26 03:14:53;;;;;;;;;10.00;9.00;;;;;17.71;100.00;99474.03;6282488;20;2761816;-54
2023/06/26 03:17:21;;;;;;;;;11.67;8.67;;;;;17.80;100.00;99479.63;6315131;20;2775319;-50
2023/06/26 03:19:48;;;;;;;;;11.00;7.00;;;;;17.78;100.00;99477.03;6320400;20;2766996;-53
2023/06/26 03:22:16;;;;;;;;;9.00;9.00;;;;;17.76;100.00;99479.88;6295505;20;2758701;-52
2023/06/26 03:24:45;;;;;;;;;12.33;8.67;;;;;17.64;100.00;99478.34;6286449;20;2770220;-51
2023/06/26 03:27:13;;;;;;;;;9.67;8.33;;;;;17.67;100.00;99477.22;6324073;20;2768982;-54
2023/06/26 03:29:43;;;;;;;;;12.00;12.00;;;;;17.94;100.00;99481.91;6324066;20;2669039;-54
2023/06/26 03:32:12;;;;;;;;;9.20;9.20;;;;;18.05;100.00;99484.44;6312129;20;2754603;-56
2023/06/26 03:34:39;;;;;;;;;10.00;9.00;;;;;18.04;100.00;99481.88;6297011;20;2650315;-51
2023/06/26 03:37:07;;;;;;;;;10.33;9.00;;;;;18.10;100.00;99486.72;6294135;20;2763806;-54
2023/06/26 03:39:35;;;;;;;;;9.00;9.00;;;;;18.13;100.00;99487.25;6319958;20;2746177;-56
2023/06/26 03:42:03;;;;;;;;;11.00;10.00;;;;;18.30;100.00;99487.50;6289414;20;3517968;-54
2023/06/26 03:44:31;;;;;;;;;8.33;8.00;;;;;18.07;100.00;99482.44;6314050;20;2761778;-54
2023/06/26 03:47:00;;;;;;;;;9.60;7.80;;;;;18.39;100.00;99484.75;6343717;20;2741023;-49
2023/06/26 03:49:28;;;;;;;;;13.33;12.00;;;;;18.27;100.00;99485.06;6314013;20;2792201;-53
2023/06/26 03:51:56;;;;;;;;;14.00;12.33;;;;;18.40;100.00;99483.75;6322548;20;2782644;-48
2023/06/26 03:54:24;;;;;;;;;10.00;10.00;;;;;18.27;100.00;99482.34;6314084;20;3514359;-53
2023/06/26 03:56:52;;;;;;;;;11.00;11.00;;;;;18.46;100.00;99482.28;6318486;20;2789908;-51
2023/06/26 03:59:20;;;;;;;;;11.67;11.67;;;;;18.61;100.00;99488.91;6313303;20;2788979;-54
2023/06/26 04:01:48;;;;;;;;;13.33;10.67;;;;;18.86;100.00;99490.13;6318997;20;2792018;-53
2023/06/26 04:04:20;;;;;;;;;11.33;11.33;;;;;18.91;100.00;99492.38;6310936;20;3517075;-51
2023/06/26 04:06:48;;;;;;;;;10.00;9.00;;;;;18.97;100.00;99494.50;6319737;20;2767961;-53
2023/06/26 04:09:16;;;;;;;;;10.00;10.00;;;;;18.96;100.00;99500.94;6313840;20;3503436;-52
2023/06/26 04:11:45;;;;;;;;;11.33;11.33;;;;;18.95;100.00;99498.38;6313674;20;3519030;-51
2023/06/26 04:14:13;;;;;;;;;10.33;9.00;;;;;18.94;100.00;99492.06;6281826;20;2776269;-49
2023/06/26 04:16:41;;;;;;;;;15.00;13.33;;;;;18.89;100.00;99499.00;6312235;20;3530495;-48
2023/06/26 04:19:10;;;;;;;;;28.33;18.33;;;;;18.93;100.00;99501.25;6315287;20;3610704;-49
2023/06/26 04:21:38;;;;;;;;;16.00;15.00;;;;;19.05;100.00;99497.28;6282242;20;3539835;-54
2023/06/26 04:24:06;;;;;;;;;11.00;11.00;;;;;19.14;100.00;99502.81;6283042;20;2790991;-51
2023/06/26 04:26:34;;;;;;;;;13.67;13.33;;;;;19.20;100.00;99500.34;6315102;20;3514964;-51
2023/06/26 04:29:03;;;;;;;;;15.67;13.00;;;;;19.13;100.00;99503.84;6310259;20;2489909;-53
2023/06/26 04:31:31;;;;;;;;;13.67;11.67;;;;;19.10;100.00;99509.59;6312018;20;3523328;-51
2023/06/26 04:33:59;;;;;;;;;13.67;13.67;;;;;19.16;100.00;99506.25;6312137;20;3525287;-50
2023/06/26 04:36:31;;;;;;;;;12.33;12.33;;;;;19.33;100.00;99502.69;6284979;20;2809042;-53
2023/06/26 04:38:59;;;;;;;;;14.00;13.00;;;;;19.33;100.00;99513.59;6313662;20;3527359;-51
2023/06/26 04:41:28;;;;;;;;;14.00;11.00;;;;;19.63;100.00;99519.66;6312181;20;3521238;-55
2023/06/26 04:43:56;;;;;;;;;12.00;11.67;;;;;19.60;100.00;99519.97;6277792;20;3530928;-51
2023/06/26 04:46:24;;;;;;;;;14.00;13.00;;;;;19.68;100.00;99528.25;6312770;20;3523226;-52
2023/06/26 04:48:53;;;;;;;;;16.33;13.33;;;;;20.00;99.77;99516.75;6309210;20;3535679;-55
2023/06/26 04:51:21;;;;;;;;;13.67;13.00;;;;;20.01;100.00;99521.19;6283287;20;3518380;-55
2023/06/26 04:53:49;;;;;;;;;12.33;12.33;;;;;20.23;97.51;99522.53;6279688;20;3516971;-53
2023/06/26 04:56:17;;;;;;;;;12.00;12.00;;;;;20.24;95.68;99524.22;6282817;20;2491950;-54
2023/06/26 04:58:45;;;;;;;;;16.33;16.33;;;;;20.10;97.56;99522.09;6320313;20;3551527;-57
2023/06/26 05:01:15;;;;;;;;;16.00;14.00;;;;;20.43;94.25;99523.13;6317567;20;2685712;-50
2023/06/26 05:03:45;;;;;;;;;13.33;13.33;;;;;20.36;95.50;99522.94;6318019;20;3512758;-53
2023/06/26 05:06:13;;;;;;;;;16.00;15.00;;;;;20.61;91.33;99525.84;6286576;20;2483623;-55
2023/06/26 05:08:41;;;;;;;;;13.67;12.67;;;;;20.79;90.43;99528.47;6318234;20;2485734;-52
2023/06/26 05:11:09;;;;;;;;;18.67;14.67;;;;;20.91;90.30;99532.63;6321865;20;3547148;-53
2023/06/26 05:13:37;;;;;;;;;18.00;16.00;;;;;20.98;89.46;99530.09;6282538;20;2828079;-55
2023/06/26 05:16:08;;;;;;;;;16.00;16.00;;;;;21.11;86.85;99535.94;6283254;20;2819285;-52
2023/06/26 05:18:37;;;;;;;;;16.00;16.00;;;;;21.36;87.48;99536.84;6283069;20;2827376;-53
2023/06/26 05:21:07;;;;;;;;;19.33;15.67;;;;;21.57;85.96;99533.69;6284273;20;2837830;-53
2023/06/26 05:23:35;;;;;;;;;15.00;14.67;;;;;21.76;85.48;99532.50;6319406;20;3540028;-54
2023/06/26 05:26:04;;;;;;;;;17.00;16.00;;;;;21.74;84.49;99539.16;6316129;20;2829511;-55
2023/06/26 05:28:32;;;;;;;;;17.00;16.50;;;;;22.12;82.94;99532.16;6284506;20;2824627;-56
2023/06/26 05:31:01;;;;;;;;;17.50;16.50;;;;;22.28;83.10;99540.34;6285493;20;2835693;-52
2023/06/26 05:33:29;;;;;;;;;16.67;16.00;;;;;22.34;82.36;99536.06;6287495;20;3551410;-56
2023/06/26 05:36:00;;;;;;;;;16.67;15.00;;;;;22.21;81.26;99533.03;6318355;20;3554511;-53
2023/06/26 05:38:28;;;;;;;;;17.50;17.00;;;;;22.34;80.32;99538.81;6278244;20;2833647;-53
2023/06/26 05:40:57;;;;;;;;;19.67;16.67;;;;;22.37;82.56;99535.72;6287493;20;3567996;-54
2023/06/26 05:43:25;;;;;;;;;17.00;16.33;;;;;22.63;79.81;99543.69;6288571;20;3562938;-52
2023/06/26 05:46:00;;;;;;;;;16.67;16.67;;;;;22.94;79.68;99534.69;6285725;20;3555657;-50
2023/06/26 05:48:28;;;;;;;;;13.50;13.50;;;;;23.21;78.70;99538.84;6281531;20;2808646;-53
2023/06/26 05:50:56;;;;;;;;;17.00;16.00;;;;;23.08;79.25;99538.59;6287316;20;3557629;-51
2023/06/26 05:53:25;;;;;;;;;16.67;14.67;;;;;23.27;77.00;99538.13;6284587;20;3550384;-54
2023/06/26 05:55:53;;;;;;;;;15.00;15.00;;;;;23.52;78.26;99529.78;6316351;20;3534698;-50
2023/06/26 05:58:23;;;;;;;;;16.00;15.00;;;;;23.44;76.21;99531.53;6316539;20;3542037;-56
2023/06/26 06:00:51;;;;;;;;;17.33;14.67;;;;;23.64;77.25;99534.66;6315804;20;2491945;-53
2023/06/26 06:03:20;;;;;;;;;15.67;15.67;;;;;23.54;75.82;99539.53;6319516;20;3552477;-55
2023/06/26 06:05:48;;;;;;;;;13.33;13.00;;;;;23.73;72.41;99538.22;6298663;20;3527352;-54
2023/06/26 06:08:16;;;;;;;;;15.00;14.67;;;;;24.06;71.95;99540.66;6316564;20;3531557;-54
2023/06/26 06:10:44;;;;;;;;;14.00;14.00;;;;;24.26;69.74;99539.13;6317602;20;3534792;-53
2023/06/26 06:13:12;;;;;;;;;16.00;14.67;;;;;24.55;70.58;99542.97;6315839;20;3552378;-52
2023/06/26 06:15:41;;;;;;;;;19.33;16.00;;;;;24.65;69.54;99540.78;6282004;20;3567032;-55
2023/06/26 06:18:09;;;;;;;;;15.00;15.00;;;;;24.69;66.63;99547.59;6284095;20;3548646;-50
2023/06/26 06:20:37;;;;;;;;;18.33;17.33;;;;;24.87;65.73;99546.38;6285393;20;3559703;-56
2023/06/26 06:23:06;;;;;;;;;17.00;17.00;;;;;24.98;66.38;99543.13;6281044;20;2839452;-54
2023/06/26 06:25:35;;;;;;;;;17.33;17.33;;;;;25.13;66.13;99546.72;6311304;20;3557609;-54
2023/06/26 06:28:05;;;;;;;;;16.00;15.00;;;;;25.02;65.91;99538.13;6286525;20;3550306;-52
2023/06/26 06:30:33;;;;;;;;;21.00;21.00;;;;;25.64;64.74;99540.34;6286019;20;3581515;-55
2023/06/26 06:33:13;;;;;;;;;18.67;18.67;;;;;25.42;64.62;99544.97;6283000;20;3560702;-55
2023/06/26 06:35:42;;;;;;;;;20.00;19.33;;;;;25.70;64.74;99544.22;6284875;20;3564864;-56
2023/06/26 06:38:10;;;;;;;;;21.00;19.00;;;;;25.77;64.28;99548.72;6284277;20;3574236;-57
2023/06/26 06:40:38;;;;;;;;;19.67;18.00;;;;;25.90;62.91;99544.44;6287864;20;3576310;-55
2023/06/26 06:43:06;;;;;;;;;19.67;19.67;;;;;26.26;61.13;99552.59;6283851;20;3564921;-54
2023/06/26 06:45:35;;;;;;;;;16.00;16.00;;;;;26.53;59.04;99552.81;6281881;20;3560725;-54
2023/06/26 06:48:04;;;;;;;;;18.00;18.00;;;;;26.56;59.95;99546.91;6285149;20;3575306;-52
2023/06/26 06:50:33;;;;;;;;;17.00;17.00;;;;;26.65;59.84;99556.72;6280855;20;2833613;-53
2023/06/26 06:53:01;;;;;;;;;17.67;17.00;;;;;27.19;58.10;99553.22;6317227;20;3569026;-54
2023/06/26 06:55:30;;;;;;;;;15.00;15.00;;;;;27.13;58.18;99551.25;6288011;20;3539898;-54
2023/06/26 06:57:58;;;;;;;;;15.00;13.67;;;;;27.11;58.17;99556.97;6284081;20;2483700;-56
2023/06/26 07:00:26;;;;;;;;;18.00;18.00;;;;;27.26;56.76;99545.00;6317196;20;3569044;-53
2023/06/26 07:02:56;;;;;;;;;17.33;17.33;;;;;27.62;56.65;99547.44;6284986;20;3556605;-55
2023/06/26 07:05:24;;;;;;;;;19.00;17.00;;;;;27.83;55.24;99549.19;6281565;20;3575290;-54
2023/06/26 07:07:53;;;;;;;;;19.00;17.67;;;;;26.91;56.57;99550.53;6285407;20;3569158;-53
2023/06/26 07:10:21;;;;;;;;;14.00;14.00;;;;;27.94;53.74;99550.50;6285739;20;3537870;-52
2023/06/26 07:12:49;;;;;;;;;12.33;12.33;;;;;27.97;54.23;99550.06;6317681;20;3534664;-55
2023/06/26 07:15:17;;;;;;;;;16.00;16.00;;;;;27.95;51.03;99543.91;6313917;20;3560718;-53
2023/06/26 07:17:45;;;;;;;;;17.00;16.33;;;;;27.92;52.86;99552.59;6283386;20;3558722;-51
2023/06/26 07:20:17;;;;;;;;;14.33;14.00;;;;;27.83;53.21;99549.19;6282964;20;3538811;-49
2023/06/26 07:22:45;;;;;;;;;15.33;13.33;;;;;28.04;51.21;99550.91;6318562;20;3535830;-52
2023/06/26 07:25:13;;;;;;;;;15.00;14.00;;;;;27.95;53.34;99549.44;6281866;20;3550377;-55
2023/06/26 07:27:42;;;;;;;;;14.67;11.00;;;;;28.12;52.44;99558.13;6281652;20;2492069;-52
2023/06/26 07:30:11;;;;;;;;;16.00;16.00;;;;;28.04;49.99;99547.31;6310884;20;2832576;-50
2023/06/26 07:32:42;;;;;;;;;19.00;17.00;;;;;28.66;49.32;99549.63;6284110;20;3569060;-52
2023/06/26 07:35:11;;;;;;;;;13.67;13.67;;;;;28.93;49.64;99555.09;6313126;20;2824248;-53
2023/06/26 07:37:40;;;;;;;;;17.00;15.00;;;;;28.92;50.07;99553.41;6316904;20;3546140;-53
2023/06/26 07:40:10;;;;;;;;;13.67;10.67;;;;;27.34;50.51;99551.16;6279572;20;3503396;-54
2023/06/26 07:42:39;;;;;;;;;14.00;14.00;;;;;27.80;49.69;99555.09;6286920;20;3528512;-53
2023/06/26 07:45:11;;;;;;;;;16.67;16.33;;;;;28.12;52.14;99552.59;6312009;20;3551571;-55
2023/06/26 07:47:40;;;;;;;;;16.00;16.00;;;;;28.22;50.63;99562.16;6276969;20;3555495;-53
2023/06/26 07:50:09;;;;;;;;;18.50;15.00;;;;;28.94;50.66;99561.47;6279340;20;2827391;-53
2023/06/26 07:52:37;;;;;;;;;16.67;15.33;;;;;28.53;51.44;99554.34;6284043;20;3549382;-53
2023/06/26 07:55:06;;;;;;;;;15.33;15.33;;;;;28.87;51.06;99562.34;6275468;20;3549643;-50
2023/06/26 07:57:34;;;;;;;;;17.00;15.50;;;;;28.55;50.07;99560.50;6312182;20;2823217;-60
2023/06/26 08:00:03;;;;;;;;;17.33;16.00;;;;;27.97;49.29;99550.06;6285002;20;3564839;-58
2023/06/26 08:02:32;;;;;;;;;17.50;16.00;;;;;28.60;49.25;99572.59;6283056;20;2829461;-59
2023/06/26 08:05:00;;;;;;;;;18.00;18.00;;;;;28.71;47.96;99567.50;6285429;20;3568063;-58
2023/06/26 08:07:28;;;;;;;;;15.67;15.67;;;;;28.97;48.46;99567.41;6286449;20;3554522;-59
2023/06/26 08:09:57;;;;;;;;;15.00;14.50;;;;;29.13;47.48;99565.28;6278648;20;2812908;-59
2023/06/26 08:12:26;;;;;;;;;16.00;15.00;;;;;28.54;48.32;99567.94;6276842;20;2823239;-59
2023/06/26 08:14:55;;;;;;;;;16.67;16.67;;;;;29.04;49.63;99568.28;6310180;20;3561773;-59
2023/06/26 08:17:24;;;;;;;;;16.33;14.33;;;;;29.25;46.50;99569.03;6314213;20;2814034;-59
2023/06/26 08:19:54;;;;;;;;;10.33;9.33;;;;;28.86;47.76;99563.41;6311981;20;3499347;-58
2023/06/26 08:22:22;;;;;;;;;18.00;14.33;;;;;29.54;48.53;99568.50;6314991;20;3551326;-59
2023/06/26 08:24:50;;;;;;;;;15.00;14.67;;;;;29.41;45.24;99571.34;6283020;20;3545589;-58
2023/06/26 08:27:18;;;;;;;;;16.67;15.00;;;;;29.47;47.57;99577.91;6314711;20;3532017;-59
2023/06/26 08:29:46;;;;;;;;;15.00;13.50;;;;;29.51;46.17;99570.84;6279326;20;2806605;-58
2023/06/26 08:32:14;;;;;;;;;17.00;13.67;;;;;29.49;48.86;99571.06;6293116;20;3549234;-58
2023/06/26 08:34:42;;;;;;;;;15.00;14.67;;;;;29.40;46.24;99575.16;6288055;20;3546095;-59
2023/06/26 08:37:10;;;;;;;;;15.00;15.00;;;;;29.39;46.89;99570.69;6287427;20;3536745;-58
2023/06/26 08:39:38;;;;;;;;;14.33;12.67;;;;;29.46;47.28;99565.97;6319441;20;2483620;-59
2023/06/26 08:42:07;;;;;;;;;15.00;15.00;;;;;29.49;45.58;99565.53;6322103;20;3544123;-58
2023/06/26 08:44:35;;;;;;;;;17.00;14.00;;;;;29.92;44.44;99575.97;6287029;20;3544028;-59
2023/06/26 08:47:14;;;;;;;;;19.33;17.67;;;;;29.45;46.19;99560.66;6282892;20;2838919;-54
2023/06/26 08:50:08;;;;;;;;;16.00;14.33;;;;;29.76;44.17;99565.41;6318425;20;3532583;-58
2023/06/26 08:52:44;;;;;;;;;14.00;12.00;;;;;29.69;42.73;99570.13;6322520;20;3526402;-58
2023/06/26 08:55:15;;;;;;;;;14.00;14.00;;;;;28.84;46.30;99559.16;6314298;20;2803414;-58
2023/06/26 08:57:43;;;;;;;;;15.00;14.00;;;;;27.75;47.55;99555.75;6285369;20;2810727;-58
2023/06/26 09:00:15;;;;;;;;;16.00;13.50;;;;;28.63;47.18;99551.97;6285485;20;2817474;-58
2023/06/26 09:02:45;;;;;;;;;15.00;15.00;;;;;28.43;47.09;99554.72;6290256;20;3545062;-58
2023/06/26 09:05:13;;;;;;;;;15.50;13.50;;;;;28.27;46.72;99550.50;6311295;20;2812886;-58
2023/06/26 09:07:41;;;;;;;;;16.00;15.00;;;;;29.78;46.40;99568.81;6281195;20;2810111;-57
2023/06/26 09:10:10;;;;;;;;;15.50;13.50;;;;;29.57;47.22;99569.09;6280459;20;2813175;-58
2023/06/26 09:12:38;;;;;;;;;14.00;14.00;;;;;30.28;43.26;99568.91;6290224;20;3537831;-60
2023/06/26 09:15:07;;;;;;;;;18.00;15.67;;;;;30.10;43.02;99571.59;6313352;20;3556550;-59
2023/06/26 09:17:42;;;;;;;;;14.00;14.00;;;;;30.30;42.19;99560.34;6284599;20;2483789;-59
2023/06/26 09:20:11;;;;;;;;;15.00;15.00;;;;;29.83;43.18;99560.66;6318038;20;3540887;-59
2023/06/26 09:22:43;;;;;;;;;15.00;14.00;;;;;30.37;44.45;99572.25;6320541;20;3535740;-60
2023/06/26 09:25:11;;;;;;;;;16.67;14.33;;;;;30.56;42.11;99565.66;6319560;20;3549210;-59
2023/06/26 09:27:39;;;;;;;;;11.67;11.67;;;;;30.44;43.11;99569.38;6288728;20;2483637;-60
2023/06/26 09:30:08;;;;;;;;;16.00;13.33;;;;;30.45;41.53;99565.56;6317936;20;2483629;-59
2023/06/26 09:32:36;;;;;;;;;13.33;11.67;;;;;30.69;42.42;99575.75;6318001;20;3515904;-60
2023/06/26 09:35:05;;;;;;;;;13.00;12.33;;;;;30.77;41.87;99572.69;6319790;20;3508616;-59
2023/06/26 09:37:34;;;;;;;;;17.00;17.00;;;;;29.86;46.48;99570.44;6316058;20;3569028;-59
2023/06/26 09:40:04;;;;;;;;;15.00;15.00;;;;;28.30;47.54;99563.88;6285062;20;3538826;-59
2023/06/26 09:42:32;;;;;;;;;13.00;10.00;;;;;27.51;47.10;99550.78;6314887;20;3507553;-59
2023/06/26 09:45:02;;;;;;;;;15.33;15.33;;;;;27.20;50.19;99554.94;6317227;20;3558711;-59
2023/06/26 09:47:32;;;;;;;;;11.33;10.00;;;;;27.44;47.78;99547.19;6284565;20;2483739;-59
2023/06/26 09:50:04;;;;;;;;;16.33;15.33;;;;;29.23;45.06;99558.22;6313843;20;3556903;-59
2023/06/26 09:52:34;;;;;;;;;14.67;13.67;;;;;29.06;43.10;99555.06;6288721;20;3533786;-59
2023/06/26 09:55:10;;;;;;;;;15.00;15.00;;;;;29.42;42.42;99552.81;6315609;20;3531517;-59
2023/06/26 09:57:38;;;;;;;;;15.00;14.00;;;;;30.37;40.99;99556.47;6279527;20;2483766;-59
2023/06/26 10:00:09;;;;;;;;;12.00;11.00;;;;;30.60;41.31;99549.44;6311837;20;3537911;-58
2023/06/26 10:02:37;;;;;;;;;13.33;11.33;;;;;30.84;42.93;99551.34;6318074;20;3504582;-59
2023/06/26 10:05:06;;;;;;;;;12.67;12.67;;;;;29.92;39.64;99556.56;6316935;20;2483728;-59
2023/06/26 10:07:36;;;;;;;;;15.00;15.00;;;;;30.02;41.26;99546.91;6317553;20;3536836;-58
2023/06/26 10:10:07;;;;;;;;;13.00;12.00;;;;;30.05;39.87;99540.94;6310299;20;2791012;-58
2023/06/26 10:12:35;;;;;;;;;14.50;13.50;;;;;30.61;41.30;99553.88;6283408;20;2810718;-59
2023/06/26 10:15:05;;;;;;;;;12.50;12.50;;;;;30.28;40.45;99549.53;6284113;20;2795157;-58
2023/06/26 10:17:36;;;;;;;;;17.50;13.00;;;;;29.86;41.69;99542.75;6281026;20;2809767;-58
2023/06/26 10:20:09;;;;;;;;;12.50;12.50;;;;;30.42;41.60;99543.84;6282774;20;2810790;-57
2023/06/26 10:22:47;;;;;;;;;18.33;15.33;;;;;30.19;41.86;99546.13;6280594;20;2828286;-63
2023/06/26 10:25:20;;;;;;;;;15.33;15.33;;;;;29.28;43.98;99527.13;6315633;20;3546148;-58
2023/06/26 10:27:55;;;;;;;;;14.33;14.33;;;;;28.58;44.74;99522.22;6281646;20;3535733;-59
2023/06/26 10:30:30;;;;;;;;;16.67;15.00;;;;;28.60;44.26;99522.88;6319248;20;3551352;-58
2023/06/26 10:33:00;;;;;;;;;15.00;13.50;;;;;29.67;43.01;99528.00;6279941;20;2807629;-58
2023/06/26 10:35:30;;;;;;;;;15.00;14.00;;;;;28.29;44.78;99520.75;6286938;20;3537821;-58
2023/06/26 10:38:06;;;;;;;;;16.67;12.33;;;;;27.83;45.90;99512.47;6313661;20;3518091;-57
2023/06/26 10:40:51;;;;;;;;;15.00;14.00;;;;;28.13;46.18;99516.53;6314225;20;3541980;-58
2023/06/26 10:43:19;;;;;;;;;16.00;15.00;;;;;28.41;44.52;99512.66;6280221;20;3549277;-58
2023/06/26 10:45:54;;;;;;;;;13.33;13.00;;;;;28.48;47.06;99513.53;6283900;20;3537951;-59
2023/06/26 10:48:22;;;;;;;;;11.33;10.00;;;;;28.19;45.96;99515.66;6285723;20;2483638;-58
2023/06/26 10:50:53;;;;;;;;;14.00;13.00;;;;;27.76;45.99;99510.53;6314108;20;2796207;-58
2023/06/26 10:53:34;;;;;;;;;13.67;13.67;;;;;28.57;43.97;99515.03;6276184;20;3539938;-57
2023/06/26 10:56:05;;;;;;;;;17.33;15.33;;;;;29.82;42.56;99520.22;6310624;20;2825417;-58
2023/06/26 10:58:46;;;;;;;;;13.33;13.33;;;;;30.07;41.31;99522.16;6316111;20;3530475;-58
2023/06/26 11:01:22;;;;;;;;;14.33;13.00;;;;;29.74;40.30;99524.13;6315161;20;3527360;-59
2023/06/26 11:04:03;;;;;;;;;14.00;14.00;;;;;30.30;40.86;99527.13;6316374;20;3534831;-58
2023/06/26 11:06:32;;;;;;;;;12.50;12.50;;;;;30.15;42.01;99524.69;6313830;20;2805510;-59
2023/06/26 11:09:10;;;;;;;;;13.67;13.67;;;;;28.55;44.01;99514.38;6283491;20;2483645;-59
2023/06/26 11:11:54;;;;;;;;;15.33;12.00;;;;;28.31;45.06;99518.63;6318018;20;3534686;-60
2023/06/26 11:14:24;;;;;;;;;14.67;14.00;;;;;27.95;46.22;99513.53;6313421;20;3536979;-60